Terminal Aerodrome Forecast
Issued by NWS Sioux Falls, SD

Home | Current Version | Previous Version | Text Only | Print | Product List | Glossary Off
Versions: 1 2 3 4 5 6 7 8 9 10 11 12 13 14 15 16 17 18 19 20 21 22 23 24 25 26 27 28 29 30 31 32 33 34

000
FTUS43 KFSD 271720
TAFSUX
TAF
KSUX 271720Z 2718/2818 32010KT P6SM SCT025 BKN045
     FM272100 33007KT P6SM SCT070
     FM280400 03005KT P6SM SCT150
     FM280800 05008KT P6SM BKN100
     FM281400 05012KT P6SM OVC050
     FM281700 05012KT P6SM OVC030=

USA.gov is the U.S. government's official web portal to all federal, state and local government web resources and services.